createdAt,value
2017-11-18T00:00:52.959Z,102160.68
2017-11-18T00:02:56.257Z,102160.19
2017-11-18T00:04:59.609Z,102155.28
2017-11-18T00:07:02.934Z,102152.09
2017-11-18T00:09:06.290Z,102148.11
2017-11-18T00:11:09.676Z,102149.45
2017-11-18T00:13:13.084Z,102146.75
2017-11-18T00:15:16.467Z,102147.68
2017-11-18T00:17:19.761Z,102142.70
2017-11-18T00:19:23.214Z,102138.66
2017-11-18T00:21:26.505Z,102140.93
2017-11-18T00:23:29.801Z,102142.20
2017-11-18T00:25:33.217Z,102133.25
2017-11-18T00:27:36.640Z,102135.53
2017-11-18T00:29:39.942Z,102132.83
2017-11-18T00:31:43.257Z,102127.95
2017-11-18T00:33:46.585Z,102132.93
2017-11-18T00:35:49.876Z,102139.58
2017-11-18T00:37:53.202Z,102127.95
2017-11-18T00:39:56.514Z,102137.41
2017-11-18T00:41:59.813Z,102130.23
2017-11-18T00:44:03.172Z,102137.41
2017-11-18T00:46:06.535Z,102134.78
2017-11-18T00:48:09.846Z,102136.06
2017-11-18T00:50:13.166Z,102135.10
2017-11-18T00:52:16.462Z,102135.63
2017-11-18T00:54:19.782Z,102130.30
2017-11-18T00:56:23.122Z,102125.83
2017-11-18T00:58:26.408Z,102128.95
2017-11-18T01:00:29.773Z,102124.48
2017-11-18T01:02:33.108Z,102123.55
2017-11-18T01:04:36.390Z,102126.68
2017-11-18T01:06:39.701Z,102129.38
2017-11-18T01:08:43.019Z,102126.68
2017-11-18T01:10:46.402Z,102125.40
2017-11-18T01:12:49.773Z,102124.05
2017-11-18T01:14:53.105Z,102124.05
2017-11-18T01:16:56.484Z,102114.17
2017-11-18T01:18:59.777Z,102115.53
2017-11-18T01:21:03.114Z,102112.40
2017-11-18T01:23:06.406Z,102107.00
2017-11-18T01:25:09.989Z,102104.73
2017-11-18T01:27:13.310Z,102096.62
2017-11-18T01:29:16.604Z,102096.20
2017-11-18T01:31:19.906Z,102093.42
2017-11-18T01:33:23.266Z,102097.05
2017-11-18T01:35:26.610Z,102086.33
2017-11-18T01:37:29.939Z,102097.05
2017-11-18T01:39:33.262Z,102102.02
2017-11-18T01:41:36.561Z,102093.92
2017-11-18T01:43:39.859Z,102092.58
2017-11-18T01:45:43.245Z,102095.28
2017-11-18T01:47:46.541Z,102087.67
2017-11-18T01:49:49.850Z,102091.23
2017-11-18T01:51:53.180Z,102083.20
2017-11-18T01:53:56.499Z,102078.22
2017-11-18T01:55:59.794Z,102080.00
2017-11-18T01:58:03.189Z,102070.98
2017-11-18T02:00:06.580Z,102076.38
2017-11-18T02:02:10.770Z,102073.25
2017-11-18T02:04:14.086Z,102068.77
2017-11-18T02:06:17.390Z,102071.97
2017-11-18T02:08:20.761Z,102066.14
2017-11-18T02:10:24.094Z,102051.30
2017-11-18T02:12:27.461Z,102048.20
2017-11-18T02:14:31.113Z,102043.20
2017-11-18T02:16:34.446Z,102034.70
2017-11-18T02:18:37.771Z,102037.80
2017-11-18T02:20:41.046Z,102032.82
2017-11-18T02:22:44.369Z,102027.00
2017-11-18T02:24:47.679Z,102022.55
2017-11-18T02:26:51.081Z,102020.67
2017-11-18T02:28:54.401Z,102024.41
2017-11-18T02:30:57.759Z,102019.00
2017-11-18T02:33:01.065Z,102020.35
2017-11-18T02:35:04.403Z,102023.48
2017-11-18T02:37:07.698Z,102019.93
2017-11-18T02:39:10.991Z,102024.30
2017-11-18T02:41:14.415Z,102019.93
2017-11-18T02:43:17.713Z,102020.35
2017-11-18T02:45:21.054Z,102012.25
2017-11-18T02:47:24.364Z,102011.83
2017-11-18T02:49:27.663Z,102010.98
2017-11-18T02:51:30.974Z,102011.41
2017-11-18T02:53:34.291Z,102004.23
2017-11-18T02:55:37.646Z,102000.60
2017-11-18T02:57:40.944Z,101996.98
2017-11-18T02:59:44.282Z,102000.67
2017-11-18T03:01:47.587Z,101995.70
2017-11-18T03:03:50.894Z,101997.05
2017-11-18T03:05:54.294Z,102001.03
2017-11-18T03:07:57.694Z,102000.60
2017-11-18T03:10:01.013Z,101994.28
2017-11-18T03:12:04.370Z,101992.01
2017-11-18T03:14:07.671Z,101993.85
2017-11-18T03:16:11.119Z,101986.68
2017-11-18T03:18:14.558Z,101988.45
2017-11-18T03:20:17.865Z,101990.73
2017-11-18T03:22:21.225Z,101991.66
2017-11-18T03:24:24.614Z,101980.00
2017-11-18T03:26:27.921Z,101981.28
2017-11-18T03:28:31.222Z,101982.13
2017-11-18T03:30:34.542Z,101981.28
2017-11-18T03:32:37.880Z,101980.42
2017-11-18T03:34:41.181Z,101978.58
2017-11-18T03:36:44.506Z,101985.83
2017-11-18T03:38:47.819Z,101978.16
2017-11-18T03:40:51.215Z,101983.55
2017-11-18T03:42:54.581Z,101977.30
2017-11-18T03:44:57.954Z,101985.83
2017-11-18T03:47:01.310Z,101978.16
2017-11-18T03:49:04.622Z,101975.03
2017-11-18T03:51:07.993Z,101972.75
2017-11-18T03:53:11.389Z,101970.05
2017-11-18T03:55:14.774Z,101968.28
2017-11-18T03:57:18.961Z,101956.13
2017-11-18T03:59:22.265Z,101964.23
2017-11-18T04:01:25.588Z,101957.48
2017-11-18T04:03:28.958Z,101959.25
2017-11-18T04:05:32.387Z,101958.41
2017-11-18T04:07:35.785Z,101957.98
2017-11-18T04:09:39.075Z,101958.41
2017-11-18T04:11:42.376Z,101961.53
2017-11-18T04:13:45.695Z,101959.75
2017-11-18T04:15:48.985Z,101953.93
2017-11-18T04:17:52.665Z,101948.53
2017-11-18T04:19:55.994Z,101949.45
2017-11-18T04:21:59.301Z,101940.43
2017-11-18T04:24:02.672Z,101945.91
2017-11-18T04:26:05.986Z,101941.78
2017-11-18T04:28:09.366Z,101940.08
2017-11-18T04:30:12.736Z,101940.93
2017-11-18T04:32:16.047Z,101941.36
2017-11-18T04:34:19.425Z,101930.55
2017-11-18T04:36:22.806Z,101930.12
2017-11-18T04:38:26.209Z,101920.26
2017-11-18T04:40:29.502Z,101921.18
2017-11-18T04:42:32.798Z,101917.55
2017-11-18T04:44:36.122Z,101918.48
2017-11-18T04:46:39.589Z,101916.63
2017-11-18T04:48:42.887Z,101918.48
2017-11-18T04:50:46.284Z,101916.63
2017-11-18T04:52:49.566Z,101909.03
2017-11-18T04:54:52.861Z,101913.08
2017-11-18T04:56:56.227Z,101907.69
2017-11-18T04:58:59.613Z,101902.28
2017-11-18T05:01:02.906Z,101901.01
2017-11-18T05:03:06.290Z,101898.73
2017-11-18T05:05:09.590Z,101898.31
2017-11-18T05:07:12.972Z,101897.38
2017-11-18T05:09:16.362Z,101893.84
2017-11-18T05:11:19.756Z,101904.63
2017-11-18T05:13:23.150Z,101900.58
2017-11-18T05:15:26.545Z,101901.01
2017-11-18T05:17:29.852Z,101899.16
2017-11-18T05:19:33.491Z,101893.76
2017-11-18T05:21:36.811Z,101892.91
2017-11-18T05:23:40.213Z,101887.59
2017-11-18T05:25:43.510Z,101882.53
2017-11-18T05:27:46.832Z,101877.56
2017-11-18T05:29:50.178Z,101874.86
2017-11-18T05:31:53.486Z,101878.98
2017-11-18T05:33:56.809Z,101861.44
2017-11-18T05:36:00.111Z,101861.02
2017-11-18T05:38:03.423Z,101861.02
2017-11-18T05:40:06.742Z,101851.14
2017-11-18T05:42:10.036Z,101853.41
2017-11-18T05:44:13.321Z,101849.80
2017-11-18T05:46:16.702Z,101854.77
2017-11-18T05:48:19.997Z,101854.27
2017-11-18T05:50:23.290Z,101851.98
2017-11-18T05:52:26.670Z,101853.84
2017-11-18T05:54:29.959Z,101849.80
2017-11-18T05:56:33.249Z,101845.31
2017-11-18T05:58:36.645Z,101851.14
2017-11-18T06:00:39.942Z,101861.44
2017-11-18T06:02:43.336Z,101858.31
2017-11-18T06:04:46.653Z,101852.41
2017-11-18T06:06:50.006Z,101858.31
2017-11-18T06:08:53.304Z,101856.97
2017-11-18T06:10:56.707Z,101853.84
2017-11-18T06:13:00.013Z,101862.36
2017-11-18T06:15:03.313Z,101856.97
2017-11-18T06:17:06.634Z,101851.14
2017-11-18T06:19:09.950Z,101836.22
2017-11-18T06:21:13.490Z,101837.56
2017-11-18T06:23:16.785Z,101831.74
2017-11-18T06:25:20.119Z,101839.92
2017-11-18T06:27:23.418Z,101837.64
2017-11-18T06:29:26.798Z,101838.49
2017-11-18T06:31:30.089Z,101836.80
2017-11-18T06:33:33.489Z,101844.81
2017-11-18T06:35:36.981Z,101847.09
2017-11-18T06:37:40.273Z,101848.44
2017-11-18T06:39:43.662Z,101841.27
2017-11-18T06:41:46.965Z,101852.06
2017-11-18T06:43:50.270Z,101846.31
2017-11-18T06:45:53.560Z,101848.94
2017-11-18T06:47:56.881Z,101847.17
2017-11-18T06:50:00.202Z,101847.59
2017-11-18T06:52:03.606Z,101839.06
2017-11-18T06:54:06.986Z,101842.61
2017-11-18T06:56:10.286Z,101832.74
2017-11-18T06:58:13.674Z,101836.37
2017-11-18T07:00:16.999Z,101842.19
2017-11-18T07:02:20.357Z,101839.06
2017-11-18T07:04:23.650Z,101836.80
2017-11-18T07:06:27.028Z,101836.37
2017-11-18T07:08:30.330Z,101833.17
2017-11-18T07:10:33.647Z,101832.74
2017-11-18T07:12:37.004Z,101836.80
2017-11-18T07:14:40.304Z,101846.23
2017-11-18T07:16:43.705Z,101843.11
2017-11-18T07:18:47.350Z,101853.41
2017-11-18T07:20:50.674Z,101857.97
2017-11-18T07:22:54.238Z,101852.56
2017-11-18T07:24:57.626Z,101856.19
2017-11-18T07:27:00.934Z,101857.11
2017-11-18T07:29:04.213Z,101853.06
2017-11-18T07:31:07.597Z,101850.36
2017-11-18T07:33:10.930Z,101846.31
2017-11-18T07:35:14.969Z,101852.14
2017-11-18T07:37:18.290Z,101835.94
2017-11-18T07:39:21.645Z,101844.05
2017-11-18T07:41:24.933Z,101838.64
2017-11-18T07:43:28.294Z,101839.06
2017-11-18T07:45:31.749Z,101835.87
2017-11-18T07:47:35.140Z,101831.39
2017-11-18T07:49:38.434Z,101828.20
2017-11-18T07:51:41.746Z,101829.20
2017-11-18T07:53:45.017Z,101834.59
2017-11-18T07:55:48.329Z,101830.55
2017-11-18T07:57:51.625Z,101831.39
2017-11-18T07:59:54.917Z,101830.05
2017-11-18T08:01:58.304Z,101825.57
2017-11-18T08:04:01.590Z,101816.13
2017-11-18T08:06:04.893Z,101814.70
2017-11-18T08:08:08.275Z,101809.37
2017-11-18T08:10:11.675Z,101811.58
2017-11-18T08:12:14.965Z,101806.17
2017-11-18T08:14:18.353Z,101802.13
2017-11-18T08:16:21.642Z,101816.97
2017-11-18T08:18:24.935Z,101823.72
2017-11-18T08:20:28.285Z,101820.52
2017-11-18T08:22:31.614Z,101807.45
2017-11-18T08:24:35.163Z,101806.09
2017-11-18T08:26:38.473Z,101802.97
2017-11-18T08:28:41.772Z,101802.05
2017-11-18T08:30:45.241Z,101793.60
2017-11-18T08:32:48.668Z,101792.17
2017-11-18T08:34:51.985Z,101794.02
2017-11-18T08:36:55.486Z,101791.75
2017-11-18T08:38:58.917Z,101787.70
2017-11-18T08:41:02.331Z,101793.52
2017-11-18T08:43:05.621Z,101794.88
2017-11-18T08:45:09.129Z,101788.55
2017-11-18T08:47:13.407Z,101783.16
2017-11-18T08:49:16.726Z,101777.83
2017-11-18T08:51:20.154Z,101772.42
2017-11-18T08:53:23.479Z,101780.53
2017-11-18T08:55:26.774Z,101775.13
2017-11-18T08:57:30.189Z,101770.16
2017-11-18T08:59:33.473Z,101771.42
2017-11-18T09:01:36.776Z,101764.68
2017-11-18T09:03:40.106Z,101768.73
2017-11-18T09:05:43.467Z,101764.18
2017-11-18T09:07:46.754Z,101757.43
2017-11-18T09:09:50.073Z,101756.16
2017-11-18T09:11:53.383Z,101755.16
2017-11-18T09:13:56.676Z,101752.95
2017-11-18T09:16:00.001Z,101748.41
2017-11-18T09:18:03.387Z,101741.31
2017-11-18T09:20:06.790Z,101735.33
2017-11-18T09:22:10.170Z,101730.86
2017-11-18T09:24:13.563Z,101731.28
2017-11-18T09:26:17.166Z,101731.20
2017-11-18T09:28:20.490Z,101730.78
2017-11-18T09:30:23.845Z,101729.01
2017-11-18T09:32:27.133Z,101726.30
2017-11-18T09:34:30.625Z,101717.28
2017-11-18T09:36:33.916Z,101714.58
2017-11-18T09:38:37.380Z,101714.08
2017-11-18T09:40:40.689Z,101716.86
2017-11-18T09:42:44.061Z,101715.01
2017-11-18T09:44:47.378Z,101720.48
2017-11-18T09:46:50.777Z,101720.91
2017-11-18T09:48:54.165Z,101718.71
2017-11-18T09:50:57.454Z,101712.89
2017-11-18T09:53:00.767Z,101709.61
2017-11-18T09:55:04.150Z,101700.66
2017-11-18T09:57:07.479Z,101710.61
2017-11-18T09:59:10.804Z,101711.88
2017-11-18T10:01:14.105Z,101704.28
2017-11-18T10:03:17.503Z,101714.66
2017-11-18T10:05:20.891Z,101714.16
2017-11-18T10:07:24.190Z,101711.45
2017-11-18T10:09:27.523Z,101699.81
2017-11-18T10:11:30.833Z,101714.08
2017-11-18T10:13:34.158Z,101706.91
2017-11-18T10:15:37.496Z,101704.63
2017-11-18T10:17:40.811Z,101701.44
2017-11-18T10:19:44.277Z,101698.81
2017-11-18T10:21:47.574Z,101695.61
2017-11-18T10:23:50.892Z,101697.88
2017-11-18T10:25:54.179Z,101702.36
2017-11-18T10:27:57.856Z,101702.36
2017-11-18T10:30:01.178Z,101701.86
2017-11-18T10:32:04.572Z,101698.23
2017-11-18T10:34:07.866Z,101701.44
2017-11-18T10:36:11.194Z,101696.95
2017-11-18T10:38:14.490Z,101693.76
2017-11-18T10:40:17.830Z,101695.11
2017-11-18T10:42:21.284Z,101686.59
2017-11-18T10:44:24.795Z,101678.48
2017-11-18T10:46:28.176Z,101658.66
2017-11-18T10:48:31.617Z,101655.88
2017-11-18T10:50:35.039Z,101652.34
2017-11-18T10:52:38.325Z,101645.52
2017-11-18T10:54:41.681Z,101654.42
2017-11-18T10:56:45.066Z,101648.95
2017-11-18T10:58:48.405Z,101657.13
2017-11-18T11:00:51.973Z,101643.63
2017-11-18T11:02:55.285Z,101646.25
2017-11-18T11:04:58.588Z,101636.87
2017-11-18T11:07:01.924Z,101648.95
2017-11-18T11:09:05.319Z,101636.38
2017-11-18T11:11:08.659Z,101646.25
2017-11-18T11:13:12.006Z,101636.30
2017-11-18T11:15:15.283Z,101639.92
2017-11-18T11:17:18.674Z,101640.77
2017-11-18T11:19:21.994Z,101627.27
2017-11-18T11:21:25.308Z,101625.00
2017-11-18T11:23:28.603Z,101614.12
2017-11-18T11:25:31.913Z,101620.02
2017-11-18T11:27:35.230Z,101614.12
2017-11-18T11:29:38.691Z,101610.92
2017-11-18T11:31:42.002Z,101601.97
2017-11-18T11:33:45.321Z,101593.88
2017-11-18T11:35:48.689Z,101596.58
2017-11-18T11:37:52.052Z,101579.52
2017-11-18T11:39:55.337Z,101580.80
2017-11-18T11:41:58.665Z,101567.30
2017-11-18T11:44:02.142Z,101557.31
2017-11-18T11:46:05.452Z,101560.55
2017-11-18T11:48:08.925Z,101554.22
2017-11-18T11:50:12.237Z,101547.78
2017-11-18T11:52:15.528Z,101546.94
2017-11-18T11:54:18.830Z,101555.46
2017-11-18T11:56:22.159Z,101545.09
2017-11-18T11:58:25.444Z,101550.06
2017-11-18T12:00:28.745Z,101551.33
2017-11-18T12:02:32.134Z,101549.98
2017-11-18T12:04:35.405Z,101554.03
2017-11-18T12:06:38.703Z,101550.41
2017-11-18T12:08:42.043Z,101544.92
2017-11-18T12:10:45.425Z,101542.23
2017-11-18T12:12:48.787Z,101536.41
2017-11-18T12:14:52.077Z,101538.60
2017-11-18T12:16:55.401Z,101527.69
2017-11-18T12:18:58.698Z,101522.72
2017-11-18T12:21:02.017Z,101529.47
2017-11-18T12:23:05.314Z,101534.36
2017-11-18T12:25:08.666Z,101533.02
2017-11-18T12:27:12.060Z,101532.59
2017-11-18T12:29:15.359Z,101532.51
2017-11-18T12:31:18.921Z,101527.95
2017-11-18T12:33:22.278Z,101518.92
2017-11-18T12:35:25.589Z,101513.95
2017-11-18T12:37:28.975Z,101516.57
2017-11-18T12:39:32.275Z,101518.84
2017-11-18T12:41:35.566Z,101507.52
2017-11-18T12:43:38.861Z,101509.28
2017-11-18T12:45:42.270Z,101495.28
2017-11-18T12:47:45.793Z,101487.61
2017-11-18T12:49:49.094Z,101486.68
2017-11-18T12:51:52.446Z,101474.11
2017-11-18T12:53:55.839Z,101472.76
2017-11-18T12:55:59.133Z,101471.33
2017-11-18T12:58:02.523Z,101472.76
2017-11-18T13:00:05.911Z,101463.65
2017-11-18T13:02:09.205Z,101474.88
2017-11-18T13:04:13.047Z,101460.53
2017-11-18T13:06:16.373Z,101456.39
2017-11-18T13:08:19.673Z,101462.64
2017-11-18T13:10:23.080Z,101463.03
2017-11-18T13:12:26.495Z,101452.16
2017-11-18T13:14:29.781Z,101460.25
2017-11-18T13:16:33.150Z,101471.90
2017-11-18T13:18:36.453Z,101462.02
2017-11-18T13:20:39.787Z,101466.50
2017-11-18T13:22:43.217Z,101466.42
2017-11-18T13:24:46.512Z,101459.59
2017-11-18T13:26:49.817Z,101464.98
2017-11-18T13:28:53.189Z,101472.98
2017-11-18T13:30:56.537Z,101459.81
2017-11-18T13:33:00.073Z,101458.05
2017-11-18T13:35:03.470Z,101452.22
2017-11-18T13:37:06.773Z,101453.99
2017-11-18T13:39:10.158Z,101456.27
2017-11-18T13:41:13.550Z,101452.98
2017-11-18T13:43:16.837Z,101452.98
2017-11-18T13:45:20.141Z,101452.98
2017-11-18T13:47:23.463Z,101446.16
2017-11-18T13:49:26.784Z,101450.20
2017-11-18T13:51:30.057Z,101445.62
2017-11-18T13:53:33.379Z,101437.02
2017-11-18T13:55:36.670Z,101433.80
2017-11-18T13:57:39.962Z,101433.89
2017-11-18T13:59:43.344Z,101422.58
2017-11-18T14:01:46.641Z,101425.20
2017-11-18T14:03:49.941Z,101421.15
2017-11-18T14:05:53.423Z,101420.22
2017-11-18T14:07:56.716Z,101421.07
2017-11-18T14:10:00.007Z,101413.05
2017-11-18T14:12:03.406Z,101406.30
2017-11-18T14:14:06.705Z,101409.84
2017-11-18T14:16:09.998Z,101411.62
2017-11-18T14:18:13.366Z,101412.89
2017-11-18T14:20:16.684Z,101412.04
2017-11-18T14:22:19.965Z,101413.89
2017-11-18T14:24:23.354Z,101403.52
2017-11-18T14:26:26.793Z,101409.34
2017-11-18T14:28:30.116Z,101402.59
2017-11-18T14:30:33.508Z,101409.34
2017-11-18T14:32:36.794Z,101401.97
2017-11-18T14:34:40.353Z,101409.14
2017-11-18T14:36:43.665Z,101411.00
2017-11-18T14:38:46.981Z,101405.94
2017-11-18T14:40:50.282Z,101407.71
2017-11-18T14:42:53.657Z,101403.66
2017-11-18T14:44:57.047Z,101397.84
2017-11-18T14:47:00.608Z,101406.78
2017-11-18T14:49:03.903Z,101402.81
2017-11-18T14:51:07.198Z,101398.77
2017-11-18T14:53:10.513Z,101402.31
2017-11-18T14:55:13.826Z,101403.23
2017-11-18T14:57:17.150Z,101403.66
2017-11-18T14:59:20.449Z,101404.16
2017-11-18T15:01:23.762Z,101399.61
2017-11-18T15:03:27.070Z,101404.16
2017-11-18T15:05:30.388Z,101405.02
2017-11-18T15:07:33.808Z,101405.36
2017-11-18T15:09:37.096Z,101403.66
2017-11-18T15:11:40.455Z,101405.44
2017-11-18T15:13:43.755Z,101403.23
2017-11-18T15:15:54.058Z,101413.03
2017-11-18T15:20:39.522Z,101401.89
2017-11-18T15:22:48.562Z,101407.80
2017-11-18T15:24:57.564Z,101414.97
2017-11-18T15:27:06.556Z,101402.31
2017-11-18T15:29:10.812Z,101393.79
2017-11-18T15:31:19.669Z,101390.66
2017-11-18T15:33:22.996Z,101401.05
2017-11-18T15:35:36.361Z,101389.81
2017-11-18T15:37:45.285Z,101391.59
2017-11-18T15:39:48.602Z,101389.73
2017-11-18T15:41:51.913Z,101386.19
2017-11-18T15:43:57.674Z,101387.12
2017-11-18T15:46:03.537Z,101382.64
2017-11-18T15:48:12.534Z,101388.47
2017-11-18T15:53:06.015Z,101379.13
2017-11-18T15:55:14.876Z,101382.34
2017-11-18T15:57:28.876Z,101378.79
2017-11-18T15:59:32.191Z,101376.09
2017-11-18T16:01:41.029Z,101375.67
2017-11-18T16:03:44.325Z,101373.39
2017-11-18T16:05:47.689Z,101364.02
2017-11-18T16:08:06.662Z,101369.34
2017-11-18T16:10:09.969Z,101370.27
2017-11-18T16:12:13.357Z,101367.14
2017-11-18T16:14:16.649Z,101364.44
2017-11-18T16:16:19.942Z,101363.59
2017-11-18T16:18:23.254Z,101355.58
2017-11-18T16:20:26.562Z,101346.97
2017-11-18T16:22:29.862Z,101350.17
2017-11-18T16:24:33.174Z,101352.88
2017-11-18T16:26:36.457Z,101355.92
2017-11-18T16:28:39.763Z,101351.45
2017-11-18T16:30:43.073Z,101346.97
2017-11-18T16:32:46.473Z,101341.06
2017-11-18T16:34:49.750Z,101350.52
2017-11-18T16:36:53.415Z,101352.29
2017-11-18T16:38:56.728Z,101353.22
2017-11-18T16:41:00.003Z,101350.09
2017-11-18T16:43:03.322Z,101346.47
2017-11-18T16:45:06.675Z,101348.74
2017-11-18T16:47:09.945Z,101341.99
2017-11-18T16:49:13.329Z,101341.57
2017-11-18T16:51:16.625Z,101345.63
2017-11-18T16:53:19.970Z,101343.84
2017-11-18T16:55:23.900Z,101345.20
2017-11-18T16:57:27.570Z,101340.22
2017-11-18T16:59:30.966Z,101336.67
2017-11-18T17:01:34.264Z,101336.67
2017-11-18T17:03:37.642Z,101336.79
2017-11-18T17:05:41.033Z,101327.65
2017-11-18T17:07:44.392Z,101333.16
2017-11-18T17:09:47.676Z,101328.69
2017-11-18T17:11:50.964Z,101326.80
2017-11-18T17:13:54.302Z,101329.61
2017-11-18T17:15:57.977Z,101327.77
2017-11-18T17:18:01.352Z,101324.64
2017-11-18T17:20:04.674Z,101332.40
2017-11-18T17:22:07.977Z,101333.24
2017-11-18T17:24:11.425Z,101323.38
2017-11-18T17:26:14.757Z,101331.05
2017-11-18T17:28:18.043Z,101334.59
2017-11-18T17:30:21.438Z,101331.89
2017-11-18T17:32:24.760Z,101325.22
2017-11-18T17:34:28.083Z,101327.42
2017-11-18T17:36:31.406Z,101324.30
2017-11-18T17:38:35.097Z,101322.10
2017-11-18T17:40:38.438Z,101328.01
2017-11-18T17:42:41.788Z,101328.43
2017-11-18T17:44:45.137Z,101322.61
2017-11-18T17:46:48.462Z,101326.58
2017-11-18T17:48:51.862Z,101319.41
2017-11-18T17:50:55.246Z,101321.68
2017-11-18T17:52:58.636Z,101323.95
2017-11-18T17:55:01.939Z,101324.46
2017-11-18T17:57:05.283Z,101320.83
2017-11-18T17:59:08.556Z,101322.30
2017-11-18T18:01:11.863Z,101322.30
2017-11-18T18:03:15.181Z,101326.23
2017-11-18T18:05:18.549Z,101324.04
2017-11-18T18:07:21.827Z,101330.79
2017-11-18T18:09:25.158Z,101336.73
2017-11-18T18:11:28.445Z,101334.76
2017-11-18T18:13:31.742Z,101323.11
2017-11-18T18:15:35.289Z,101320.53
2017-11-18T18:17:38.578Z,101322.69
2017-11-18T18:19:41.879Z,101316.48
2017-11-18T18:21:45.201Z,101320.41
2017-11-18T18:23:48.563Z,101301.63
2017-11-18T18:25:51.866Z,101295.38
2017-11-18T18:27:55.211Z,101315.21
2017-11-18T18:29:58.565Z,101330.48
2017-11-18T18:32:01.958Z,101320.61
2017-11-18T18:34:05.349Z,101330.48
2017-11-18T18:36:08.633Z,101330.48
2017-11-18T18:38:12.029Z,101322.89
2017-11-18T18:40:15.615Z,101325.50
2017-11-18T18:42:19.061Z,101320.61
2017-11-18T18:44:22.368Z,101308.97
2017-11-18T18:46:25.694Z,101319.77
2017-11-18T18:48:28.989Z,101323.81
2017-11-18T18:50:32.292Z,101327.02
2017-11-18T18:52:35.615Z,101321.63
2017-11-18T18:54:38.920Z,101310.39
2017-11-18T18:56:42.258Z,101307.70
2017-11-18T18:58:45.564Z,101298.67
2017-11-18T19:00:49.387Z,101301.87
2017-11-18T19:02:54.161Z,101311.75
2017-11-18T19:04:57.522Z,101316.30
2017-11-18T19:07:00.880Z,101315.99
2017-11-18T19:09:04.246Z,101322.32
2017-11-18T19:11:07.630Z,101315.57
2017-11-18T19:13:11.039Z,101318.69
2017-11-18T19:15:14.377Z,101315.06
2017-11-18T19:17:17.705Z,101315.48
2017-11-18T19:19:21.001Z,101303.42
2017-11-18T19:21:24.306Z,101307.05
2017-11-18T19:23:27.631Z,101314.30
2017-11-18T19:25:30.941Z,101313.88
2017-11-18T19:27:34.225Z,101316.16
2017-11-18T19:29:37.638Z,101320.20
2017-11-18T19:31:40.925Z,101315.73
2017-11-18T19:33:44.317Z,101315.31
2017-11-18T19:35:47.722Z,101312.30
2017-11-18T19:37:51.085Z,101314.89
2017-11-18T19:39:54.400Z,101313.66
2017-11-18T19:41:57.889Z,101318.13
2017-11-18T19:44:01.556Z,101316.36
2017-11-18T19:46:05.143Z,101313.66
2017-11-18T19:48:09.323Z,101312.30
2017-11-18T19:50:12.695Z,101305.98
2017-11-18T19:52:16.039Z,101297.87
2017-11-18T19:54:19.364Z,101299.31
2017-11-18T19:56:22.648Z,101297.96
2017-11-18T19:58:26.053Z,101295.77
2017-11-18T20:00:29.358Z,101295.68
2017-11-18T20:02:32.657Z,101289.95
2017-11-18T20:04:35.950Z,101285.89
2017-11-18T20:06:39.514Z,101278.22
2017-11-18T20:08:42.909Z,101280.58
2017-11-18T20:10:47.694Z,101282.34
2017-11-18T20:12:51.013Z,101277.87
2017-11-18T20:14:54.415Z,101280.58
2017-11-18T20:16:57.803Z,101280.58
2017-11-18T20:19:01.196Z,101276.53
2017-11-18T20:21:04.495Z,101275.17
2017-11-18T20:23:07.795Z,101276.53
2017-11-18T20:25:11.161Z,101271.13
2017-11-18T20:27:14.449Z,101271.13
2017-11-18T20:29:17.739Z,101272.48
2017-11-18T20:31:21.049Z,101277.45
2017-11-18T20:33:24.346Z,101274.02
2017-11-18T20:35:27.646Z,101269.47
2017-11-18T20:37:30.969Z,101270.40
2017-11-18T20:39:34.261Z,101268.94
2017-11-18T20:41:37.558Z,101270.40
2017-11-18T20:43:40.953Z,101268.20
2017-11-18T20:45:44.250Z,101267.27
2017-11-18T20:47:47.542Z,101264.07
2017-11-18T20:49:50.944Z,101266.01
2017-11-18T20:51:54.236Z,101269.12
2017-11-18T20:53:57.621Z,101269.63
2017-11-18T20:56:00.939Z,101261.45
2017-11-18T20:58:04.228Z,101254.78
2017-11-18T21:00:07.522Z,101247.11
2017-11-18T21:02:10.858Z,101252.00
2017-11-18T21:04:14.156Z,101251.16
2017-11-18T21:06:17.535Z,101248.97
2017-11-18T21:08:20.829Z,101251.58
2017-11-18T21:10:24.141Z,101252.09
2017-11-18T21:12:27.442Z,101247.53
2017-11-18T21:14:30.753Z,101248.97
2017-11-18T21:16:34.049Z,101254.28
2017-11-18T21:18:37.402Z,101249.81
2017-11-18T21:20:40.719Z,101245.34
2017-11-18T21:22:44.090Z,101241.80
2017-11-18T21:24:47.435Z,101241.38
2017-11-18T21:26:50.866Z,101242.22
2017-11-18T21:28:54.154Z,101239.52
2017-11-18T21:30:57.446Z,101245.42
2017-11-18T21:33:00.757Z,101248.13
2017-11-18T21:35:04.137Z,101252.67
2017-11-18T21:37:07.433Z,101245.00
2017-11-18T21:39:10.780Z,101247.62
2017-11-18T21:41:14.067Z,101254.02
2017-11-18T21:43:17.391Z,101248.55
2017-11-18T21:45:20.761Z,101249.89
2017-11-18T21:47:24.064Z,101244.07
2017-11-18T21:49:27.427Z,101243.34
2017-11-18T21:51:30.730Z,101244.58
2017-11-18T21:53:34.096Z,101237.41
2017-11-18T21:55:37.412Z,101241.99
2017-11-18T21:57:40.736Z,101238.76
2017-11-18T21:59:44.124Z,101239.72
2017-11-18T22:01:47.413Z,101231.19
2017-11-18T22:03:50.744Z,101221.75
2017-11-18T22:05:54.033Z,101220.82
2017-11-18T22:07:57.332Z,101222.25
2017-11-18T22:10:00.647Z,101226.30
2017-11-18T22:12:03.954Z,101224.11
2017-11-18T22:14:07.251Z,101219.13
2017-11-18T22:16:10.557Z,101217.78
2017-11-18T22:18:13.849Z,101212.80
2017-11-18T22:20:17.216Z,101218.62
2017-11-18T22:22:20.530Z,101211.12
2017-11-18T22:24:23.890Z,101203.36
2017-11-18T22:26:27.289Z,101202.52
2017-11-18T22:28:30.609Z,101204.37
2017-11-18T22:30:33.906Z,101199.81
2017-11-18T22:32:37.358Z,101194.50
2017-11-18T22:34:40.715Z,101188.17
2017-11-18T22:36:44.000Z,101192.30
2017-11-18T22:38:47.381Z,101188.67
2017-11-18T22:40:50.718Z,101188.25
2017-11-18T22:42:54.106Z,101188.25
2017-11-18T22:44:57.416Z,101191.45
2017-11-18T22:47:00.882Z,101189.09
2017-11-18T22:49:04.173Z,101186.40
2017-11-18T22:51:07.577Z,101179.65
2017-11-18T22:53:10.890Z,101182.86
2017-11-18T22:55:14.183Z,101184.62
2017-11-18T22:57:17.509Z,101177.03
2017-11-18T22:59:20.807Z,101180.16
2017-11-18T23:01:24.230Z,101179.31
2017-11-18T23:03:27.627Z,101177.96
2017-11-18T23:05:30.933Z,101174.45
2017-11-18T23:07:34.227Z,101172.05
2017-11-18T23:09:37.641Z,101168.13
2017-11-18T23:11:41.010Z,101174.76
2017-11-18T23:13:44.328Z,101166.77
2017-11-18T23:15:47.661Z,101169.05
2017-11-18T23:17:50.982Z,101174.45
2017-11-18T23:19:54.306Z,101168.63
2017-11-18T23:21:57.638Z,101170.41
2017-11-18T23:24:00.964Z,101168.63
2017-11-18T23:26:04.557Z,101173.09
2017-11-18T23:28:07.913Z,101173.52
2017-11-18T23:30:11.221Z,101172.68
2017-11-18T23:32:14.694Z,101169.48
2017-11-18T23:34:18.082Z,101174.45